Time;durP1;ratioP1;P1;durP2;ratioP2;P2;SDS_P1;SDS_P2;PMS_P1;PMS_P2;Temp;Humidity;BMP_temperature;BMP_pressure;BME280_temperature;BME280_humidity;BME280_pressure;Samples;Min_cycle;Max_cycle;Signal;HPM_P1;HPM_P2
2022/09/03 00:00:34;;;;;;;;;;;;;;;;;;4879823;29;20419;-76
2022/09/03 00:03:01;;;;;;;;;;;;;;;;;;4888374;29;19927;-76
2022/09/03 00:05:29;;;;;;;;;;;;;;;;;;4879809;29;19942;-76
2022/09/03 00:07:56;;;;;;;;;;;;;;;;;;4891974;29;20364;-76
2022/09/03 00:10:23;;;;;;;;;;;;;;;;;;4894283;29;20395;-76
2022/09/03 00:12:50;;;;;;;;;;;;;;;;;;4893664;29;20061;-75
2022/09/03 00:15:18;;;;;;;;;;;;;;;;;;4888125;29;19927;-75
2022/09/03 00:17:45;;;;;;;;;;;;;;;;;;4884150;29;19938;-75
2022/09/03 00:20:12;;;;;;;;;;;;;;;;;;4887416;29;20518;-74
2022/09/03 00:22:39;;;;;;;;;;;;;;;;;;4891404;29;20022;-75
2022/09/03 00:25:12;;;;;;;;;;;;;;;;;;4887967;29;20383;-76
2022/09/03 00:27:39;;;;;;;;;;;;;;;;;;4885285;29;19936;-75
2022/09/03 00:30:06;;;;;;;;;;;;;;;;;;4885949;29;19950;-76
2022/09/03 00:32:34;;;;;;;;;;;;;;;;;;4887899;29;19939;-76
2022/09/03 00:35:01;;;;;;;;;;;;;;;;;;4888732;29;19942;-77
2022/09/03 00:37:28;;;;;;;;;;;;;;;;;;4876848;29;19971;-75
2022/09/03 00:39:56;;;;;;;;;;;;;;;;;;4877353;29;20427;-76
2022/09/03 00:42:23;;;;;;;;;;;;;;;;;;4891363;29;20011;-76
2022/09/03 00:44:51;;;;;;;;;;;;;;;;;;4875833;29;19975;-76
2022/09/03 00:47:18;;;;;;;;;;;;;;;;;;4873241;29;19967;-75
2022/09/03 00:49:45;;;;;;;;;;;;;;;;;;4893124;29;19927;-77
2022/09/03 00:52:12;;;;;;;;;;;;;;;;;;4892071;29;20407;-75
2022/09/03 00:54:40;;;;;;;;;;;;;;;;;;4891110;29;19938;-75
2022/09/03 00:57:08;;;;;;;;;;;;;;;;;;4891931;29;20479;-75
2022/09/03 00:59:35;;;;;;;;;;;;;;;;;;4890683;29;19928;-75
2022/09/03 01:02:04;;;;;;;;;;;;;;;;;;4891386;29;20037;-75
2022/09/03 01:04:32;;;;;;;;;;;;;;;;;;4900279;29;19931;-76
2022/09/03 01:06:59;;;;;;;;;;;;;;;;;;4901669;29;19931;-76
2022/09/03 01:09:28;;;;;;;;;;;;;;;;;;4900700;29;20331;-75
2022/09/03 01:11:58;;;;;;;;;;;;;;;;;;4886416;29;19935;-76
2022/09/03 01:14:25;;;;;;;;;;;;;;;;;;4899601;29;19931;-76
2022/09/03 01:16:53;;;;;;;;;;;;;;;;;;4888582;29;20370;-75
2022/09/03 01:19:24;;;;;;;;;;;;;;;;;;4899183;29;20651;-75
2022/09/03 01:21:51;;;;;;;;;;;;;;;;;;4876542;29;20344;-75
2022/09/03 01:24:18;;;;;;;;;;;;;;;;;;4877112;29;20011;-76
2022/09/03 01:26:45;;;;;;;;;;;;;;;;;;4896529;29;20035;-76
2022/09/03 01:29:13;;;;;;;;;;;;;;;;;;4877611;29;19931;-76
2022/09/03 01:31:41;;;;;;;;;;;;;;;;;;4873536;29;20041;-76
2022/09/03 01:34:08;;;;;;;;;;;;;;;;;;4894351;29;19928;-76
2022/09/03 01:36:35;;;;;;;;;;;;;;;;;;4892756;29;19931;-76
2022/09/03 01:39:03;;;;;;;;;;;;;;;;;;4870081;29;19927;-77
2022/09/03 01:44:15;;;;;;;;;;;;;;;;;;4891698;29;19931;-76
2022/09/03 01:46:47;;;;;;;;;;;;;;;;;;4894518;29;19927;-76
2022/09/03 01:49:14;;;;;;;;;;;;;;;;;;4903901;29;20028;-76
2022/09/03 01:51:42;;;;;;;;;;;;;;;;;;4855981;29;20051;-76
2022/09/03 01:54:09;;;;;;;;;;;;;;;;;;4868346;29;19935;-76
2022/09/03 01:56:36;;;;;;;;;;;;;;;;;;4894403;29;19927;-76
2022/09/03 01:59:06;;;;;;;;;;;;;;;;;;4899375;29;19930;-76
2022/09/03 02:01:33;;;;;;;;;;;;;;;;;;4881502;29;19928;-76
2022/09/03 02:04:01;;;;;;;;;;;;;;;;;;4891760;29;19974;-76
2022/09/03 02:06:30;;;;;;;;;;;;;;;;;;4883776;29;19938;-76
2022/09/03 02:08:57;;;;;;;;;;;;;;;;;;4885060;29;19966;-76
2022/09/03 02:11:25;;;;;;;;;;;;;;;;;;4880865;29;19933;-76
2022/09/03 02:13:52;;;;;;;;;;;;;;;;;;4889870;29;19941;-77
2022/09/03 02:16:19;;;;;;;;;;;;;;;;;;4902154;29;19931;-77
2022/09/03 02:18:47;;;;;;;;;;;;;;;;;;4889645;29;19939;-77
2022/09/03 02:21:14;;;;;;;;;;;;;;;;;;4890942;29;20014;-77
2022/09/03 02:23:41;;;;;;;;;;;;;;;;;;4883095;29;19939;-76
2022/09/03 02:26:08;;;;;;;;;;;;;;;;;;4885607;29;20494;-76
2022/09/03 02:28:36;;;;;;;;;;;;;;;;;;4889485;29;20018;-76
2022/09/03 02:31:03;;;;;;;;;;;;;;;;;;4887474;29;19935;-75
2022/09/03 02:33:33;;;;;;;;;;;;;;;;;;4874975;29;19937;-76
2022/09/03 02:36:00;;;;;;;;;;;;;;;;;;4895139;29;19938;-77
2022/09/03 02:38:28;;;;;;;;;;;;;;;;;;4880376;29;20260;-75
2022/09/03 02:40:55;;;;;;;;;;;;;;;;;;4886989;29;19942;-76
2022/09/03 02:43:22;;;;;;;;;;;;;;;;;;4878616;29;21485;-76
2022/09/03 02:45:52;;;;;;;;;;;;;;;;;;4897041;29;19935;-76
2022/09/03 02:48:20;;;;;;;;;;;;;;;;;;4876894;29;19963;-75
2022/09/03 02:50:47;;;;;;;;;;;;;;;;;;4857175;29;19996;-77
2022/09/03 02:53:15;;;;;;;;;;;;;;;;;;4871173;29;20106;-76
2022/09/03 02:55:42;;;;;;;;;;;;;;;;;;4898152;29;19931;-77
2022/09/03 02:58:09;;;;;;;;;;;;;;;;;;4893997;29;19931;-76
2022/09/03 03:00:36;;;;;;;;;;;;;;;;;;4869027;29;20392;-75
2022/09/03 03:03:04;;;;;;;;;;;;;;;;;;4892550;29;19943;-76
2022/09/03 03:05:31;;;;;;;;;;;;;;;;;;4891843;29;19927;-76
2022/09/03 03:07:58;;;;;;;;;;;;;;;;;;4894692;29;20382;-76
2022/09/03 03:10:25;;;;;;;;;;;;;;;;;;4889105;29;19927;-75
2022/09/03 03:12:53;;;;;;;;;;;;;;;;;;4898401;29;19958;-77
2022/09/03 03:15:20;;;;;;;;;;;;;;;;;;4885754;29;19936;-75
2022/09/03 03:17:48;;;;;;;;;;;;;;;;;;4889019;29;19970;-75
2022/09/03 03:20:15;;;;;;;;;;;;;;;;;;4890280;29;20262;-76
2022/09/03 03:22:42;;;;;;;;;;;;;;;;;;4896474;29;19938;-76
2022/09/03 03:25:10;;;;;;;;;;;;;;;;;;4885921;29;19931;-75
2022/09/03 03:27:40;;;;;;;;;;;;;;;;;;4878700;29;19951;-75
2022/09/03 03:30:09;;;;;;;;;;;;;;;;;;4888512;29;20352;-76
2022/09/03 03:32:36;;;;;;;;;;;;;;;;;;4898928;29;20399;-76
2022/09/03 03:35:03;;;;;;;;;;;;;;;;;;4885701;29;19931;-76
2022/09/03 03:37:30;;;;;;;;;;;;;;;;;;4889231;29;20338;-76
2022/09/03 03:39:57;;;;;;;;;;;;;;;;;;4883818;29;20033;-76
2022/09/03 03:42:25;;;;;;;;;;;;;;;;;;4867508;29;19931;-76
2022/09/03 03:44:53;;;;;;;;;;;;;;;;;;4881164;29;19935;-76
2022/09/03 03:47:20;;;;;;;;;;;;;;;;;;4859227;29;20295;-76
2022/09/03 03:49:48;;;;;;;;;;;;;;;;;;4869967;29;19927;-76
2022/09/03 03:52:15;;;;;;;;;;;;;;;;;;4887850;29;20399;-76
2022/09/03 03:54:42;;;;;;;;;;;;;;;;;;4877557;29;20025;-76
2022/09/03 03:57:10;;;;;;;;;;;;;;;;;;4893931;29;20303;-76
2022/09/03 03:59:37;;;;;;;;;;;;;;;;;;4899146;29;20302;-76
2022/09/03 04:02:05;;;;;;;;;;;;;;;;;;4887086;29;20011;-76
2022/09/03 04:04:32;;;;;;;;;;;;;;;;;;4886792;29;20540;-75
2022/09/03 04:07:00;;;;;;;;;;;;;;;;;;4885944;29;19941;-76
2022/09/03 04:09:27;;;;;;;;;;;;;;;;;;4879776;29;19931;-77
2022/09/03 04:11:56;;;;;;;;;;;;;;;;;;4881918;29;19939;-77
2022/09/03 04:14:24;;;;;;;;;;;;;;;;;;4872948;29;19931;-76
2022/09/03 04:16:51;;;;;;;;;;;;;;;;;;4886172;29;19931;-76
2022/09/03 04:19:18;;;;;;;;;;;;;;;;;;4870043;29;19982;-77
2022/09/03 04:21:46;;;;;;;;;;;;;;;;;;4857396;29;19962;-77
2022/09/03 04:24:13;;;;;;;;;;;;;;;;;;4894856;29;19934;-77
2022/09/03 04:26:40;;;;;;;;;;;;;;;;;;4865597;29;19936;-77
2022/09/03 04:29:08;;;;;;;;;;;;;;;;;;4878904;29;19935;-78
2022/09/03 04:31:35;;;;;;;;;;;;;;;;;;4864805;29;19934;-77
2022/09/03 04:34:04;;;;;;;;;;;;;;;;;;4890514;29;19979;-76
2022/09/03 04:36:32;;;;;;;;;;;;;;;;;;4888794;29;19931;-77
2022/09/03 04:39:00;;;;;;;;;;;;;;;;;;4881847;29;19927;-76
2022/09/03 04:41:28;;;;;;;;;;;;;;;;;;4879282;29;19942;-76
2022/09/03 04:43:55;;;;;;;;;;;;;;;;;;4874279;29;19931;-76
2022/09/03 04:46:24;;;;;;;;;;;;;;;;;;4824959;29;19935;-76
2022/09/03 04:48:52;;;;;;;;;;;;;;;;;;4867567;29;20676;-76
2022/09/03 04:51:19;;;;;;;;;;;;;;;;;;4888769;29;19939;-76
2022/09/03 04:53:46;;;;;;;;;;;;;;;;;;4885018;29;19984;-76
2022/09/03 04:56:13;;;;;;;;;;;;;;;;;;4889727;29;20300;-76
2022/09/03 04:58:42;;;;;;;;;;;;;;;;;;4890991;29;20315;-76
2022/09/03 05:01:10;;;;;;;;;;;;;;;;;;4886712;29;20147;-76
2022/09/03 05:03:37;;;;;;;;;;;;;;;;;;4883470;29;19935;-76
2022/09/03 05:06:05;;;;;;;;;;;;;;;;;;4883011;29;20463;-76
2022/09/03 05:08:36;;;;;;;;;;;;;;;;;;4875215;29;19954;-76
2022/09/03 05:11:03;;;;;;;;;;;;;;;;;;4862664;29;20040;-76
2022/09/03 05:13:32;;;;;;;;;;;;;;;;;;4882085;29;20011;-76
2022/09/03 05:15:59;;;;;;;;;;;;;;;;;;4863890;29;20140;-76
2022/09/03 05:18:29;;;;;;;;;;;;;;;;;;4881499;29;20281;-76
2022/09/03 05:20:57;;;;;;;;;;;;;;;;;;4859760;29;20768;-75
2022/09/03 05:23:24;;;;;;;;;;;;;;;;;;4878368;29;19935;-76
2022/09/03 05:25:51;;;;;;;;;;;;;;;;;;4876753;29;19927;-76
2022/09/03 05:28:18;;;;;;;;;;;;;;;;;;4872802;29;21386;-76
2022/09/03 05:33:35;;;;;;;;;;;;;;;;;;4863257;29;19939;-69
2022/09/03 05:36:02;;;;;;;;;;;;;;;;;;4858437;29;20007;-69
2022/09/03 09:57:26;;;;;;;2.08;1.85;;;;;;;;;;5036426;28;20472;-69
2022/09/03 10:00:09;;;;;;;2.53;1.60;;;;;;;;;;5051205;28;20533;-70
2022/09/03 10:02:48;;;;;;;2.17;1.52;;;;;;;;;;5053153;28;20070;-70
2022/09/03 10:05:19;;;;;;;2.47;1.60;;;;;;;;;;5048458;28;20128;-70
2022/09/03 10:08:00;;;;;;;1.80;1.50;;;;;;;;;;5040020;28;20037;-69
2022/09/03 10:10:30;;;;;;;3.70;1.40;;;;;;;;;;5058571;28;20048;-69
2022/09/03 10:13:01;;;;;;;1.60;1.48;;;;;;;;;;5048832;28;20049;-70
2022/09/03 10:15:48;;;;;;;1.27;1.23;;;;;;;;;;5059234;28;20324;-70
2022/09/03 10:18:27;;;;;;;1.60;1.50;;;;;;;;;;5054298;28;20118;-72
2022/09/03 10:21:05;;;;;;;2.03;1.40;;;;;;;;;;5064389;28;20070;-70
2022/09/03 10:23:49;;;;;;;1.77;1.67;;;;;;;;;;5076611;28;20050;-70
2022/09/03 10:26:18;;;;;;;2.08;1.50;;;;;;;;;;5045243;28;20037;-68
2022/09/03 10:28:49;;;;;;;1.25;1.13;;;;;;;;;;5058305;28;20040;-69
2022/09/03 10:31:25;;;;;;;4.78;1.38;;;;;;;;;;5058652;28;20055;-69
2022/09/03 10:34:00;;;;;;;3.17;1.38;;;;;;;;;;5051203;28;20068;-69
2022/09/03 10:36:34;;;;;;;1.70;1.40;;;;;;;;;;5050663;28;20127;-70
2022/09/03 10:39:01;;;;;;;2.15;1.40;;;;;;;;;;5061293;28;20063;-70
2022/09/03 10:41:28;;;;;;;1.90;1.40;;;;;;;;;;5048622;28;20041;-69
2022/09/03 10:43:59;;;;;;;2.67;1.52;;;;;;;;;;5052033;28;20046;-69
2022/09/03 10:46:28;;;;;;;2.80;1.42;;;;;;;;;;5057838;28;20052;-69
2022/09/03 10:49:15;;;;;;;3.22;1.58;;;;;;;;;;5055954;28;20068;-71
2022/09/03 10:51:46;;;;;;;3.08;1.48;;;;;;;;;;5041130;28;20560;-69
2022/09/03 10:54:30;;;;;;;1.60;1.40;;;;;;;;;;5061052;28;20048;-69
2022/09/03 10:57:11;;;;;;;1.67;1.38;;;;;;;;;;5058782;28;20052;-68
2022/09/03 10:59:57;;;;;;;2.47;1.67;;;;;;;;;;5060895;28;20333;-69
2022/09/03 11:02:25;;;;;;;1.23;1.13;;;;;;;;;;5044782;28;20047;-69
2022/09/03 11:04:55;;;;;;;2.42;1.40;;;;;;;;;;5038136;28;20064;-69
2022/09/03 11:07:25;;;;;;;1.40;1.30;;;;;;;;;;5033734;28;20425;-69
2022/09/03 11:10:10;;;;;;;2.20;1.42;;;;;;;;;;5026454;28;20049;-70
2022/09/03 11:12:43;;;;;;;2.97;1.30;;;;;;;;;;5037697;28;20051;-69
2022/09/03 11:15:20;;;;;;;1.63;1.25;;;;;;;;;;5035924;28;20072;-69
2022/09/03 11:18:12;;;;;;;1.75;1.48;;;;;;;;;;5036537;28;20128;-70
2022/09/03 11:20:41;;;;;;;2.40;1.60;;;;;;;;;;5031130;28;20064;-70
2022/09/03 11:23:12;;;;;;;2.25;1.50;;;;;;;;;;5039183;28;20042;-69
2022/09/03 11:25:43;;;;;;;1.88;1.40;;;;;;;;;;5045046;28;20037;-70
2022/09/03 11:28:18;;;;;;;2.20;1.37;;;;;;;;;;5046223;28;20370;-70
2022/09/03 11:33:46;;;;;;;3.13;1.30;;;;;;;;;;4986087;28;20046;-74
2022/09/03 11:36:22;;;;;;;1.30;1.20;;;;;;;;;;4978635;28;20419;-75
2022/09/03 11:38:50;;;;;;;2.80;1.63;;;;;;;;;;4948094;28;21960;-75
2022/09/03 11:41:26;;;;;;;3.58;1.27;;;;;;;;;;4969552;28;20105;-75
2022/09/03 11:43:54;;;;;;;3.60;1.70;;;;;;;;;;4969884;28;20047;-75
2022/09/03 11:46:22;;;;;;;3.05;1.80;;;;;;;;;;4972849;28;20418;-75
2022/09/03 11:48:57;;;;;;;1.98;1.30;;;;;;;;;;4946638;28;20054;-74
2022/09/03 11:51:28;;;;;;;1.80;1.58;;;;;;;;;;4984847;28;20042;-75
2022/09/03 11:53:58;;;;;;;3.88;1.45;;;;;;;;;;4985466;28;20733;-75
2022/09/03 11:56:25;;;;;;;2.55;1.40;;;;;;;;;;4968818;28;20039;-75
2022/09/03 11:59:14;;;;;;;2.78;1.17;;;;;;;;;;4975935;28;20053;-74
2022/09/03 12:01:44;;;;;;;2.55;1.30;;;;;;;;;;4978128;28;20150;-74
2022/09/03 12:04:15;;;;;;;2.43;1.30;;;;;;;;;;4966225;28;20039;-76
2022/09/03 12:06:49;;;;;;;3.13;1.20;;;;;;;;;;4973079;28;20298;-75
2022/09/03 12:09:35;;;;;;;1.33;1.13;;;;;;;;;;4982171;28;20133;-76
2022/09/03 12:12:08;;;;;;;1.25;1.20;;;;;;;;;;4983708;28;20068;-75
2022/09/03 12:14:51;;;;;;;3.13;1.13;;;;;;;;;;4982436;28;20837;-75
2022/09/03 12:17:23;;;;;;;2.40;0.90;;;;;;;;;;4973326;28;20047;-75
2022/09/03 12:19:55;;;;;;;2.22;1.27;;;;;;;;;;4966242;28;20589;-75
2022/09/03 12:22:24;;;;;;;1.42;1.20;;;;;;;;;;4966394;28;20125;-75
2022/09/03 12:24:52;;;;;;;1.83;1.23;;;;;;;;;;4980364;28;20039;-75
2022/09/03 12:27:24;;;;;;;2.05;1.35;;;;;;;;;;4975785;28;20065;-75
2022/09/03 12:29:59;;;;;;;1.70;1.60;;;;;;;;;;4984539;28;20124;-75
2022/09/03 12:32:37;;;;;;;2.63;1.98;;;;;;;;;;4979115;28;20066;-75
2022/09/03 12:35:14;;;;;;;1.33;1.25;;;;;;;;;;4977939;28;20405;-75
2022/09/03 12:38:02;;;;;;;1.92;1.20;;;;;;;;;;4974933;28;20056;-75
2022/09/03 12:40:34;;;;;;;1.80;1.48;;;;;;;;;;4964930;28;20070;-75
2022/09/03 12:43:26;;;;;;;1.63;1.50;;;;;;;;;;4981598;28;20045;-75
2022/09/03 12:46:14;;;;;;;1.05;1.05;;;;;;;;;;4964541;28;20187;-77
2022/09/03 12:48:47;;;;;;;1.63;1.40;;;;;;;;;;4980777;28;20085;-75
2022/09/03 12:51:35;;;;;;;1.33;1.30;;;;;;;;;;4986499;28;20304;-76
2022/09/03 12:54:24;;;;;;;1.88;1.42;;;;;;;;;;4978318;28;20042;-75
2022/09/03 12:56:57;;;;;;;1.20;1.20;;;;;;;;;;4979560;28;20126;-75
2022/09/03 12:59:27;;;;;;;3.63;1.17;;;;;;;;;;4968063;28;20121;-76
2022/09/03 13:01:57;;;;;;;1.27;1.23;;;;;;;;;;4985093;28;20446;-76
2022/09/03 13:04:27;;;;;;;3.25;1.55;;;;;;;;;;4975123;28;20390;-75
2022/09/03 13:07:04;;;;;;;1.40;1.30;;;;;;;;;;4958698;28;20141;-73
2022/09/03 13:09:33;;;;;;;1.20;1.10;;;;;;;;;;4975626;28;20241;-75
2022/09/03 13:12:04;;;;;;;1.33;1.20;;;;;;;;;;4961016;28;20450;-75
2022/09/03 13:14:46;;;;;;;2.22;1.30;;;;;;;;;;4980000;28;20057;-76
2022/09/03 13:17:16;;;;;;;1.30;1.25;;;;;;;;;;4968078;28;20038;-75
2022/09/03 13:20:02;;;;;;;1.30;1.30;;;;;;;;;;4982303;28;20129;-77
2022/09/03 13:22:30;;;;;;;1.50;1.40;;;;;;;;;;4978308;28;20193;-74
2022/09/03 13:25:13;;;;;;;1.77;1.27;;;;;;;;;;4973707;28;20410;-74
2022/09/03 13:28:01;;;;;;;1.55;1.20;;;;;;;;;;4990937;28;20097;-77
2022/09/03 13:30:42;;;;;;;2.05;1.30;;;;;;;;;;4961025;28;20510;-75
2022/09/03 13:33:19;;;;;;;1.40;1.40;;;;;;;;;;4979287;28;20038;-74
2022/09/03 13:35:49;;;;;;;1.58;1.48;;;;;;;;;;4978376;28;20202;-75
2022/09/03 13:38:27;;;;;;;1.52;1.42;;;;;;;;;;4977858;28;20073;-74
2022/09/03 13:41:06;;;;;;;2.35;1.63;;;;;;;;;;4959267;28;20085;-74
2022/09/03 13:43:53;;;;;;;1.45;1.35;;;;;;;;;;4961882;28;20450;-74
2022/09/03 13:46:27;;;;;;;1.40;1.30;;;;;;;;;;4980864;28;20643;-75
2022/09/03 13:51:51;;;;;;;1.35;1.27;;;;;;;;;;4978141;28;20399;-75
2022/09/03 13:54:31;;;;;;;1.50;1.40;;;;;;;;;;4975904;28;20054;-75
2022/09/03 13:57:38;;;;;;;1.40;1.27;;;;;;;;;;4963074;28;20052;-74
2022/09/03 14:00:11;;;;;;;1.97;1.40;;;;;;;;;;4969329;28;20627;-74
2022/09/03 14:02:39;;;;;;;2.40;1.52;;;;;;;;;;4983531;28;20092;-75
2022/09/03 14:05:22;;;;;;;1.73;1.42;;;;;;;;;;4979869;28;20053;-76
2022/09/03 14:08:13;;;;;;;10.20;2.35;;;;;;;;;;4955762;28;20731;-75
2022/09/03 14:10:52;;;;;;;9.40;2.30;;;;;;;;;;4955791;28;20390;-74
2022/09/03 14:13:45;;;;;;;2.10;1.60;;;;;;;;;;4981695;28;22458;-75
2022/09/03 14:16:25;;;;;;;1.90;1.20;;;;;;;;;;4975312;28;20509;-74
2022/09/03 14:18:59;;;;;;;1.60;1.38;;;;;;;;;;4966843;28;20502;-75
2022/09/03 14:21:32;;;;;;;2.78;1.48;;;;;;;;;;4964700;28;20513;-75
2022/09/03 14:24:06;;;;;;;4.88;1.40;;;;;;;;;;4977908;28;20530;-76
2022/09/03 14:26:35;;;;;;;1.33;1.20;;;;;;;;;;4961867;28;20038;-75
2022/09/03 14:29:13;;;;;;;6.13;1.60;;;;;;;;;;4974420;28;20038;-75
2022/09/03 14:31:59;;;;;;;2.30;1.33;;;;;;;;;;4961842;28;20561;-75
2022/09/03 14:34:35;;;;;;;1.65;1.50;;;;;;;;;;4968905;28;20054;-75
2022/09/03 14:37:09;;;;;;;1.95;1.30;;;;;;;;;;4976067;28;20125;-75
2022/09/03 14:39:59;;;;;;;2.33;1.30;;;;;;;;;;4977362;28;20042;-75
2022/09/03 14:42:28;;;;;;;1.88;1.40;;;;;;;;;;4968392;28;20034;-75
2022/09/03 14:45:12;;;;;;;2.83;1.40;;;;;;;;;;4990186;28;20153;-75
2022/09/03 14:47:43;;;;;;;8.23;1.27;;;;;;;;;;4990784;28;20084;-75
2022/09/03 14:50:30;;;;;;;3.77;1.67;;;;;;;;;;4980617;28;20053;-75
2022/09/03 14:53:16;;;;;;;2.67;1.50;;;;;;;;;;4982059;28;20056;-75
2022/09/03 14:55:59;;;;;;;1.65;1.50;;;;;;;;;;4973363;28;20046;-74
2022/09/03 14:58:36;;;;;;;1.85;1.52;;;;;;;;;;4996437;28;20120;-74
2022/09/03 15:01:05;;;;;;;1.60;1.50;;;;;;;;;;4974887;28;20069;-74
2022/09/03 15:03:36;;;;;;;1.50;1.40;;;;;;;;;;4988587;28;20145;-75
2022/09/03 15:06:07;;;;;;;1.67;1.53;;;;;;;;;;4982052;28;20050;-75
2022/09/03 15:08:44;;;;;;;2.55;1.30;;;;;;;;;;4977666;28;20113;-74
2022/09/03 15:11:23;;;;;;;1.77;1.42;;;;;;;;;;4979325;28;20077;-76
2022/09/03 15:14:00;;;;;;;2.00;1.50;;;;;;;;;;4970266;28;20231;-75
2022/09/03 15:16:51;;;;;;;1.75;1.40;;;;;;;;;;4953321;28;20048;-75
2022/09/03 15:19:32;;;;;;;1.88;1.58;;;;;;;;;;4991662;28;20121;-74
2022/09/03 15:22:00;;;;;;;;;;;;;;;;;;4986230;28;20035;-75
2022/09/03 15:24:43;;;;;;;2.45;1.33;;;;;;;;;;4959915;28;20408;-75
2022/09/03 15:27:30;;;;;;;2.55;1.50;;;;;;;;;;4981896;28;20066;-74
2022/09/03 15:30:04;;;;;;;3.10;1.50;;;;;;;;;;4969780;28;20057;-75
2022/09/03 15:32:50;;;;;;;3.45;1.70;;;;;;;;;;4966948;28;20054;-75
2022/09/03 15:35:36;;;;;;;2.10;1.50;;;;;;;;;;4985132;28;20093;-75
2022/09/03 15:38:12;;;;;;;3.97;1.60;;;;;;;;;;4960174;28;20037;-76
2022/09/03 15:40:48;;;;;;;1.60;1.50;;;;;;;;;;4985621;28;20046;-75
2022/09/03 15:43:23;;;;;;;2.03;1.45;;;;;;;;;;4988915;28;20050;-75
2022/09/03 15:45:57;;;;;;;1.60;1.30;;;;;;;;;;4986003;28;20073;-74
2022/09/03 15:48:44;;;;;;;1.48;1.38;;;;;;;;;;4985143;28;20053;-74
2022/09/03 15:51:17;;;;;;;1.38;1.20;;;;;;;;;;4983186;28;20105;-75
2022/09/03 15:54:03;;;;;;;1.80;1.40;;;;;;;;;;4966367;28;20137;-76
2022/09/03 15:56:38;;;;;;;1.85;1.40;;;;;;;;;;4981306;28;20097;-75
2022/09/03 15:59:15;;;;;;;1.33;1.33;;;;;;;;;;4980029;28;20046;-76
2022/09/03 16:01:52;;;;;;;2.00;1.50;;;;;;;;;;4984340;28;20045;-76
2022/09/03 16:04:38;;;;;;;2.30;1.90;;;;;;;;;;4985027;28;20053;-76
2022/09/03 16:07:16;;;;;;;3.08;1.48;;;;;;;;;;4976324;28;20045;-75
2022/09/03 16:10:02;;;;;;;1.58;1.48;;;;;;;;;;4984521;28;20042;-76
2022/09/03 16:12:49;;;;;;;2.35;2.10;;;;;;;;;;4983534;28;20070;-74
2022/09/03 16:15:29;;;;;;;7.65;5.50;;;;;;;;;;4986410;28;20050;-74
2022/09/03 16:18:01;;;;;;;56.58;40.97;;;;;;;;;;4975919;28;20045;-76
2022/09/03 16:20:49;;;;;;;54.53;39.10;;;;;;;;;;4981550;28;20055;-75
2022/09/03 16:23:28;;;;;;;36.88;28.20;;;;;;;;;;4979647;28;20048;-75
2022/09/03 16:25:59;;;;;;;27.40;19.13;;;;;;;;;;4987877;28;20069;-75
2022/09/03 16:28:34;;;;;;;23.42;18.85;;;;;;;;;;4962059;28;20287;-75
2022/09/03 16:31:05;;;;;;;11.57;8.98;;;;;;;;;;4965418;28;20048;-74
2022/09/03 16:33:33;;;;;;;6.40;5.75;;;;;;;;;;4978563;28;20046;-76
2022/09/03 16:36:21;;;;;;;6.82;5.38;;;;;;;;;;4979841;28;20053;-76
2022/09/03 16:39:11;;;;;;;5.18;3.20;;;;;;;;;;4982813;28;20064;-74
2022/09/03 16:41:46;;;;;;;3.03;2.83;;;;;;;;;;4984065;28;20062;-74
2022/09/03 16:44:16;;;;;;;2.75;2.50;;;;;;;;;;4967005;28;20473;-75
2022/09/03 16:46:44;;;;;;;2.35;2.17;;;;;;;;;;4972601;28;20039;-75
2022/09/03 16:49:25;;;;;;;1.85;1.75;;;;;;;;;;4975755;28;20035;-77
2022/09/03 16:51:55;;;;;;;3.45;1.95;;;;;;;;;;4978614;28;20052;-75
2022/09/03 16:54:36;;;;;;;4.65;2.05;;;;;;;;;;4981381;28;20397;-75
2022/09/03 16:57:04;;;;;;;;;;;;;;;;;;4984035;28;20393;-75
2022/09/03 16:59:34;;;;;;;1.83;1.70;;;;;;;;;;4985739;28;19930;-79
2022/09/03 17:02:05;;;;;;;2.85;1.92;;;;;;;;;;4966936;28;20035;-79
2022/09/03 17:04:52;;;;;;;5.75;2.75;;;;;;;;;;4968596;28;20055;-76
2022/09/03 17:07:29;;;;;;;2.95;2.65;;;;;;;;;;4936249;28;20042;-80
2022/09/03 17:10:02;;;;;;;3.58;2.00;;;;;;;;;;4970089;28;20042;-76
2022/09/03 17:12:37;;;;;;;3.25;1.92;;;;;;;;;;4992040;28;20046;-76
2022/09/03 17:15:13;;;;;;;3.15;2.17;;;;;;;;;;4952402;28;20405;-76
2022/09/03 17:17:58;;;;;;;2.13;2.03;;;;;;;;;;4982662;28;20129;-76
2022/09/03 17:20:48;;;;;;;4.07;2.20;;;;;;;;;;4969530;28;20667;-76
2022/09/03 17:23:26;;;;;;;3.33;2.28;;;;;;;;;;4970785;28;20577;-77
2022/09/03 17:26:06;;;;;;;2.70;2.10;;;;;;;;;;4986152;28;20375;-77
2022/09/03 17:28:49;;;;;;;2.28;1.98;;;;;;;;;;4966766;28;20105;-77
2022/09/03 17:31:16;;;;;;;1.85;1.75;;;;;;;;;;4970325;28;20100;-76
2022/09/03 17:34:03;;;;;;;1.88;1.77;;;;;;;;;;4981288;28;20042;-77
2022/09/03 17:36:34;;;;;;;3.55;2.00;;;;;;;;;;4942829;28;20073;-77
2022/09/03 17:39:10;;;;;;;3.38;2.15;;;;;;;;;;4963304;28;20344;-77
2022/09/03 17:41:42;;;;;;;2.03;1.92;;;;;;;;;;4983415;28;20050;-77
2022/09/03 17:44:22;;;;;;;2.28;1.95;;;;;;;;;;4966185;28;20042;-77
2022/09/03 17:47:05;;;;;;;2.10;2.00;;;;;;;;;;4981616;28;20121;-76
2022/09/03 17:49:40;;;;;;;2.45;2.20;;;;;;;;;;4987397;28;20084;-76
2022/09/03 17:52:27;;;;;;;2.38;2.17;;;;;;;;;;4969014;28;20473;-77
2022/09/03 17:54:57;;;;;;;2.88;2.40;;;;;;;;;;4976973;28;20145;-78
2022/09/03 17:57:29;;;;;;;2.20;2.10;;;;;;;;;;4984276;28;20044;-75
2022/09/03 17:59:59;;;;;;;3.50;2.28;;;;;;;;;;4984611;28;20077;-76
2022/09/03 18:02:38;;;;;;;2.65;2.33;;;;;;;;;;4967367;28;20291;-77
2022/09/03 18:05:16;;;;;;;4.18;2.45;;;;;;;;;;4957312;28;20533;-76
2022/09/03 18:08:06;;;;;;;5.20;2.90;;;;;;;;;;4953631;28;20661;-78
2022/09/03 18:10:36;;;;;;;2.20;2.10;;;;;;;;;;4973306;28;20077;-78
2022/09/03 18:13:22;;;;;;;4.10;2.25;;;;;;;;;;4975484;28;20068;-78
2022/09/03 18:16:01;;;;;;;5.22;2.20;;;;;;;;;;4957258;28;20166;-77
2022/09/03 18:18:30;;;;;;;2.55;2.10;;;;;;;;;;4962921;28;20058;-76
2022/09/03 20:10:50;;;;;;;5.90;3.65;;;;;;;;;;4962941;28;20074;-72
2022/09/03 20:13:19;;;;;;;6.57;4.05;;;;;;;;;;4965585;28;20047;-72
2022/09/03 20:16:08;;;;;;;3.83;3.58;;;;;;;;;;4949250;28;20047;-72
2022/09/03 20:18:46;;;;;;;4.20;3.80;;;;;;;;;;4963814;28;20134;-72
2022/09/03 20:21:29;;;;;;;5.25;3.55;;;;;;;;;;4963644;28;20503;-72
2022/09/03 20:24:09;;;;;;;5.00;3.47;;;;;;;;;;4965504;28;20062;-71
2022/09/03 20:26:37;;;;;;;4.10;3.60;;;;;;;;;;4963762;28;20937;-72
2022/09/03 20:29:20;;;;;;;3.90;3.58;;;;;;;;;;4964548;28;20034;-73
2022/09/03 20:32:06;;;;;;;3.28;3.08;;;;;;;;;;4968895;28;20042;-74
2022/09/03 20:34:46;;;;;;;4.40;3.45;;;;;;;;;;4963971;28;20050;-72
2022/09/03 20:37:23;;;;;;;3.70;3.40;;;;;;;;;;4962170;28;20062;-72
2022/09/03 20:39:50;;;;;;;4.35;3.92;;;;;;;;;;4955462;28;20422;-72
2022/09/03 20:42:44;;;;;;;3.80;3.50;;;;;;;;;;4963692;28;20142;-73
2022/09/03 20:45:17;;;;;;;3.58;3.30;;;;;;;;;;4963813;28;20407;-73
2022/09/03 20:48:00;;;;;;;6.93;3.95;;;;;;;;;;4957679;28;20604;-74
2022/09/03 20:50:45;;;;;;;3.47;3.15;;;;;;;;;;4960308;28;20150;-74
2022/09/03 20:53:21;;;;;;;3.38;3.17;;;;;;;;;;4970826;28;20042;-73
2022/09/03 20:55:58;;;;;;;3.45;3.22;;;;;;;;;;4963018;28;20034;-74
2022/09/03 20:58:35;;;;;;;3.92;3.63;;;;;;;;;;4960360;28;20451;-73
2022/09/03 21:01:08;;;;;;;3.72;3.42;;;;;;;;;;4958767;28;20527;-74
2022/09/03 21:03:54;;;;;;;3.70;3.47;;;;;;;;;;4948223;28;20042;-74
2022/09/03 21:06:38;;;;;;;3.92;3.38;;;;;;;;;;4969560;28;20047;-73
2022/09/03 21:09:09;;;;;;;3.80;3.50;;;;;;;;;;4952742;28;20353;-75
2022/09/03 21:11:47;;;;;;;3.78;3.35;;;;;;;;;;4954711;28;20418;-73
2022/09/03 21:14:20;;;;;;;6.18;3.20;;;;;;;;;;4942293;28;20051;-74
2022/09/03 21:16:47;;;;;;;3.75;3.45;;;;;;;;;;4949507;28;20047;-73
2022/09/03 21:19:15;;;;;;;3.60;3.30;;;;;;;;;;4954601;28;20058;-73
2022/09/03 21:21:42;;;;;;;3.65;3.38;;;;;;;;;;4960731;28;20039;-74
2022/09/03 21:24:21;;;;;;;4.20;3.80;;;;;;;;;;4936911;28;20041;-73
2022/09/03 21:26:51;;;;;;;4.13;3.53;;;;;;;;;;4966047;28;20042;-73
2022/09/03 21:29:24;;;;;;;4.38;3.55;;;;;;;;;;4966481;28;20055;-74
2022/09/03 21:32:10;;;;;;;3.50;3.20;;;;;;;;;;4948050;28;20405;-74
2022/09/03 21:34:49;;;;;;;4.72;3.58;;;;;;;;;;4922945;28;20061;-74
2022/09/03 21:37:18;;;;;;;4.03;3.40;;;;;;;;;;4957865;28;20054;-74
2022/09/03 21:39:45;;;;;;;3.92;3.63;;;;;;;;;;4964088;28;20050;-73
2022/09/03 21:42:19;;;;;;;4.00;3.60;;;;;;;;;;4964831;28;20039;-74
2022/09/03 21:44:55;;;;;;;3.72;3.42;;;;;;;;;;4964523;28;20046;-74
2022/09/03 21:47:24;;;;;;;4.07;3.65;;;;;;;;;;4957026;28;21563;-74
2022/09/03 21:49:54;;;;;;;4.50;3.65;;;;;;;;;;4944848;28;20168;-74
2022/09/03 21:52:36;;;;;;;6.55;3.70;;;;;;;;;;4963486;28;20047;-74
2022/09/03 21:55:18;;;;;;;4.43;3.97;;;;;;;;;;4962119;28;20039;-74
2022/09/03 21:57:45;;;;;;;;;;;;;;;;;;4962998;28;20069;-75
2022/09/03 22:00:17;;;;;;;4.10;3.80;;;;;;;;;;4960049;28;19926;-75
2022/09/03 22:02:45;;;;;;;3.92;3.70;;;;;;;;;;4953312;28;20054;-74
2022/09/03 22:05:14;;;;;;;3.90;3.60;;;;;;;;;;4958149;28;20125;-74
2022/09/03 22:07:50;;;;;;;3.90;3.50;;;;;;;;;;4947624;28;20082;-75
2022/09/03 22:10:26;;;;;;;4.13;3.83;;;;;;;;;;4943495;28;20050;-74
2022/09/03 22:12:54;;;;;;;3.53;3.25;;;;;;;;;;4962181;28;20070;-74
2022/09/03 22:15:22;;;;;;;4.03;3.40;;;;;;;;;;4976125;28;20051;-74
2022/09/03 22:17:55;;;;;;;4.18;3.88;;;;;;;;;;4963217;28;20047;-74
2022/09/03 22:20:23;;;;;;;4.05;3.75;;;;;;;;;;4968276;28;20039;-74
2022/09/03 22:23:14;;;;;;;4.53;3.60;;;;;;;;;;4960355;28;20446;-75